createdAt,value
2023-12-21T00:00:16.431Z,96.65
2023-12-21T00:02:43.758Z,96.81
2023-12-21T00:05:11.215Z,96.40
2023-12-21T00:07:38.684Z,96.80
2023-12-21T00:10:07.329Z,96.87
2023-12-21T00:12:34.564Z,96.70
2023-12-21T00:15:02.074Z,97.10
2023-12-21T00:17:33.452Z,96.66
2023-12-21T00:20:00.986Z,96.88
2023-12-21T00:22:28.818Z,97.12
2023-12-21T00:24:56.185Z,96.99
2023-12-21T00:27:23.411Z,96.81
2023-12-21T00:29:50.730Z,97.21
2023-12-21T00:32:18.387Z,96.99
2023-12-21T00:34:51.051Z,96.82
2023-12-21T00:37:18.840Z,97.16
2023-12-21T00:39:46.113Z,96.83
2023-12-21T00:42:13.372Z,96.90
2023-12-21T00:44:41.559Z,97.33
2023-12-21T00:47:09.049Z,97.02
2023-12-21T00:49:36.419Z,97.18
2023-12-21T00:52:05.694Z,97.14
2023-12-21T00:54:32.949Z,97.35
2023-12-21T00:57:00.292Z,97.23
2023-12-21T00:59:27.841Z,97.11
2023-12-21T01:01:55.223Z,96.99
2023-12-21T01:04:22.500Z,97.04
2023-12-21T01:06:49.784Z,97.38
2023-12-21T01:09:18.633Z,96.88
2023-12-21T01:11:46.207Z,97.17
2023-12-21T01:14:13.527Z,97.01
2023-12-21T01:16:40.972Z,96.89
2023-12-21T01:19:08.390Z,97.16
2023-12-21T01:21:36.087Z,97.44
2023-12-21T01:24:03.508Z,97.36
2023-12-21T01:26:32.155Z,97.31
2023-12-21T01:28:59.510Z,97.03
2023-12-21T01:31:26.886Z,97.46
2023-12-21T01:33:54.288Z,97.23
2023-12-21T01:36:22.093Z,97.20
2023-12-21T01:38:49.301Z,97.08
2023-12-21T01:41:16.528Z,97.42
2023-12-21T01:43:45.698Z,97.15
2023-12-21T01:46:13.514Z,97.10
2023-12-21T01:48:42.267Z,97.30
2023-12-21T01:51:12.834Z,97.21
2023-12-21T01:53:40.988Z,97.30
2023-12-21T01:56:08.656Z,96.95
2023-12-21T01:58:36.795Z,97.17
2023-12-21T02:01:07.045Z,97.32
2023-12-21T02:03:34.918Z,97.19
2023-12-21T02:06:02.359Z,97.25
2023-12-21T02:08:29.884Z,97.00
2023-12-21T02:11:01.505Z,97.46
2023-12-21T02:13:29.041Z,97.31
2023-12-21T02:16:02.100Z,97.30
2023-12-21T02:18:31.660Z,97.42
2023-12-21T02:20:59.913Z,97.09
2023-12-21T02:23:30.147Z,97.28
2023-12-21T02:25:58.909Z,97.41
2023-12-21T02:28:26.374Z,97.44
2023-12-21T02:30:53.742Z,97.33
2023-12-21T02:33:21.098Z,97.26
2023-12-21T02:35:48.388Z,97.69
2023-12-21T02:38:15.735Z,97.49
2023-12-21T02:40:43.181Z,97.04
2023-12-21T02:43:11.830Z,97.34
2023-12-21T02:45:39.341Z,97.27
2023-12-21T02:48:07.557Z,97.05
2023-12-21T02:50:35.031Z,97.02
2023-12-21T02:53:02.406Z,97.62
2023-12-21T02:55:29.976Z,97.23
2023-12-21T02:57:57.256Z,97.28
2023-12-21T03:00:25.959Z,97.45
2023-12-21T03:02:53.456Z,97.22
2023-12-21T03:05:20.733Z,97.52
2023-12-21T03:07:47.985Z,97.44
2023-12-21T03:10:15.341Z,97.74
2023-12-21T03:12:43.203Z,97.23
2023-12-21T03:15:11.159Z,97.66
2023-12-21T03:17:40.167Z,97.57
2023-12-21T03:20:09.240Z,97.56
2023-12-21T03:22:36.717Z,97.49
2023-12-21T03:25:04.392Z,97.20
2023-12-21T03:27:32.757Z,97.57
2023-12-21T03:29:59.969Z,97.30
2023-12-21T03:32:28.305Z,97.41
2023-12-21T03:34:57.892Z,96.94
2023-12-21T03:37:28.788Z,97.06
2023-12-21T03:39:57.134Z,96.81
2023-12-21T03:42:24.531Z,97.30
2023-12-21T03:44:51.768Z,96.67
2023-12-21T03:47:21.429Z,96.89
2023-12-21T03:49:49.057Z,97.14
2023-12-21T03:52:18.054Z,97.03
2023-12-21T03:54:45.426Z,97.20
2023-12-21T03:57:12.815Z,96.97
2023-12-21T03:59:42.096Z,97.25
2023-12-21T04:02:09.436Z,97.26
2023-12-21T04:04:37.915Z,96.95
2023-12-21T04:07:05.613Z,97.41
2023-12-21T04:09:34.357Z,97.46
2023-12-21T04:12:01.714Z,97.16
2023-12-21T04:14:29.498Z,97.52
2023-12-21T04:16:56.721Z,97.59
2023-12-21T04:19:24.172Z,97.25
2023-12-21T04:21:51.463Z,97.32
2023-12-21T04:24:19.263Z,97.29
2023-12-21T04:26:47.936Z,97.07
2023-12-21T04:29:15.326Z,97.39
2023-12-21T04:31:45.952Z,97.16
2023-12-21T04:34:13.451Z,97.29
2023-12-21T04:36:40.818Z,97.35
2023-12-21T04:39:08.053Z,97.36
2023-12-21T04:41:35.559Z,97.05
2023-12-21T04:44:05.533Z,97.14
2023-12-21T04:46:33.367Z,97.20
2023-12-21T04:49:00.775Z,97.47
2023-12-21T04:51:28.085Z,96.94
2023-12-21T04:53:55.436Z,97.55
2023-12-21T04:56:23.024Z,97.62
2023-12-21T04:58:50.406Z,97.44
2023-12-21T05:01:19.812Z,97.27
2023-12-21T05:03:47.131Z,97.78
2023-12-21T05:06:15.000Z,97.63
2023-12-21T05:08:42.404Z,97.76
2023-12-21T05:11:10.163Z,97.77
2023-12-21T05:13:37.465Z,97.53
2023-12-21T05:16:05.568Z,97.80
2023-12-21T05:18:36.414Z,97.88
2023-12-21T05:21:04.024Z,97.57
2023-12-21T05:23:31.203Z,97.86
2023-12-21T05:25:58.484Z,98.03
2023-12-21T05:28:26.077Z,97.86
2023-12-21T05:30:53.886Z,97.69
2023-12-21T05:33:21.425Z,98.00
2023-12-21T05:35:50.211Z,97.90
2023-12-21T05:38:17.819Z,98.16
2023-12-21T05:40:45.250Z,98.05
2023-12-21T05:43:13.191Z,98.14
2023-12-21T05:45:40.510Z,98.19
2023-12-21T05:48:08.628Z,98.06
2023-12-21T05:50:36.389Z,97.82
2023-12-21T05:53:05.480Z,97.59
2023-12-21T05:55:32.792Z,98.11
2023-12-21T05:58:00.141Z,98.02
2023-12-21T06:00:27.489Z,98.61
2023-12-21T06:02:54.677Z,97.82
2023-12-21T06:05:22.035Z,98.12
2023-12-21T06:07:49.465Z,97.84
2023-12-21T06:10:18.173Z,98.01
2023-12-21T06:12:45.905Z,97.84
2023-12-21T06:15:13.444Z,97.98
2023-12-21T06:17:40.710Z,97.81
2023-12-21T06:20:09.431Z,97.94
2023-12-21T06:22:36.820Z,98.02
2023-12-21T06:25:04.786Z,97.50
2023-12-21T06:27:33.750Z,97.80
2023-12-21T06:30:01.153Z,97.78
2023-12-21T06:32:29.716Z,98.13
2023-12-21T06:34:57.491Z,97.96
2023-12-21T06:37:24.884Z,97.75
2023-12-21T06:39:52.424Z,97.99
2023-12-21T06:42:20.033Z,97.92
2023-12-21T06:44:48.650Z,97.87
2023-12-21T06:47:15.972Z,97.89
2023-12-21T06:49:43.604Z,97.83
2023-12-21T06:52:11.120Z,97.91
2023-12-21T06:54:38.498Z,97.92
2023-12-21T06:57:05.837Z,97.82
2023-12-21T06:59:33.246Z,97.85
2023-12-21T07:02:02.119Z,97.95
2023-12-21T07:04:29.507Z,97.62
2023-12-21T07:06:57.497Z,97.56
2023-12-21T07:09:25.299Z,97.23
2023-12-21T07:11:52.551Z,97.57
2023-12-21T07:14:19.786Z,97.46
2023-12-21T07:16:47.128Z,97.80
2023-12-21T07:19:16.067Z,97.63
2023-12-21T07:21:43.776Z,97.34
2023-12-21T07:24:11.147Z,97.75
2023-12-21T07:26:38.711Z,97.81
2023-12-21T07:29:08.495Z,97.75
2023-12-21T07:31:36.260Z,97.68
2023-12-21T07:34:04.081Z,97.83
2023-12-21T07:36:32.895Z,97.55
2023-12-21T07:39:00.485Z,97.43
2023-12-21T07:41:27.999Z,97.33
2023-12-21T07:43:55.632Z,97.69
2023-12-21T07:46:22.973Z,97.47
2023-12-21T07:48:50.841Z,97.60
2023-12-21T07:51:18.213Z,97.63
2023-12-21T07:53:46.862Z,97.82
2023-12-21T07:56:14.509Z,97.70
2023-12-21T07:58:41.829Z,97.59
2023-12-21T08:01:09.574Z,97.63
2023-12-21T08:03:36.976Z,97.42
2023-12-21T08:06:05.718Z,97.81
2023-12-21T08:08:34.933Z,97.76
2023-12-21T08:11:04.236Z,97.53
2023-12-21T08:13:32.588Z,97.87
2023-12-21T08:15:59.942Z,97.39
2023-12-21T08:18:27.283Z,97.59
2023-12-21T08:20:56.179Z,96.76
2023-12-21T08:23:23.566Z,97.27
2023-12-21T08:25:50.911Z,97.44
2023-12-21T08:28:19.794Z,97.34
2023-12-21T08:30:47.291Z,97.56
2023-12-21T08:33:14.663Z,97.40
2023-12-21T08:35:42.135Z,97.39
2023-12-21T08:38:10.110Z,97.39
2023-12-21T08:40:37.513Z,97.07
2023-12-21T08:43:05.923Z,97.11
2023-12-21T08:45:34.551Z,97.34
2023-12-21T08:48:01.952Z,97.31
2023-12-21T08:50:29.586Z,97.41
2023-12-21T08:52:57.558Z,97.17
2023-12-21T08:55:25.240Z,97.44
2023-12-21T08:57:52.619Z,97.56
2023-12-21T09:00:20.479Z,97.53
2023-12-21T09:02:50.011Z,97.38
2023-12-21T09:05:18.956Z,97.64
2023-12-21T09:07:46.468Z,97.12
2023-12-21T09:10:14.043Z,97.37
2023-12-21T09:12:41.546Z,97.42
2023-12-21T09:15:09.753Z,97.23
2023-12-21T09:17:37.310Z,96.89
2023-12-21T09:20:09.721Z,96.98
2023-12-21T09:22:38.467Z,96.73
2023-12-21T09:25:06.887Z,96.86
2023-12-21T09:27:35.845Z,96.94
2023-12-21T09:30:06.815Z,97.08
2023-12-21T09:32:34.420Z,96.67
2023-12-21T09:35:02.448Z,96.75
2023-12-21T09:37:33.456Z,96.77
2023-12-21T09:40:00.958Z,96.71
2023-12-21T09:42:29.265Z,96.97
2023-12-21T09:44:57.215Z,96.64
2023-12-21T09:47:26.060Z,96.29
2023-12-21T09:49:55.874Z,96.54
2023-12-21T09:52:24.084Z,96.60
2023-12-21T09:54:53.688Z,96.36
2023-12-21T09:57:23.473Z,96.56
2023-12-21T09:59:52.728Z,96.27
2023-12-21T10:02:20.923Z,96.08
2023-12-21T10:04:49.520Z,96.25
2023-12-21T10:07:17.349Z,96.35
2023-12-21T10:09:44.756Z,96.24
2023-12-21T10:12:14.175Z,96.78
2023-12-21T10:14:41.668Z,96.53
2023-12-21T10:17:11.994Z,96.46
2023-12-21T10:19:45.408Z,96.08
2023-12-21T10:22:12.843Z,96.23
2023-12-21T10:24:40.447Z,96.33
2023-12-21T10:27:17.970Z,96.29
2023-12-21T10:29:52.430Z,96.47
2023-12-21T10:32:20.081Z,96.08
2023-12-21T10:34:47.738Z,96.08
2023-12-21T10:37:16.068Z,96.31
2023-12-21T10:39:43.629Z,96.11
2023-12-21T10:42:11.233Z,96.21
2023-12-21T10:44:40.424Z,96.15
2023-12-21T10:47:07.831Z,95.85
2023-12-21T10:49:35.978Z,95.66
2023-12-21T10:52:05.001Z,95.80
2023-12-21T10:54:33.750Z,95.72
2023-12-21T10:57:01.694Z,95.37
2023-12-21T10:59:31.045Z,95.36
2023-12-21T11:02:00.972Z,95.03
2023-12-21T11:04:30.508Z,95.03
2023-12-21T11:06:58.789Z,95.06
2023-12-21T11:09:28.128Z,95.35
2023-12-21T11:11:58.770Z,95.08
2023-12-21T11:14:26.248Z,94.79
2023-12-21T11:16:56.619Z,95.14
2023-12-21T11:19:30.784Z,95.45
2023-12-21T11:21:59.326Z,94.94
2023-12-21T11:24:26.655Z,95.41
2023-12-21T11:26:54.464Z,95.31
2023-12-21T11:29:28.191Z,95.46
2023-12-21T11:31:56.648Z,95.15
2023-12-21T11:34:36.469Z,94.72
2023-12-21T11:37:18.131Z,94.86
2023-12-21T11:39:46.779Z,94.92
2023-12-21T11:42:14.171Z,94.81
2023-12-21T11:44:41.655Z,94.37
2023-12-21T11:47:13.569Z,94.68
2023-12-21T11:49:42.843Z,94.37
2023-12-21T11:52:10.838Z,94.29
2023-12-21T11:54:38.387Z,94.11
2023-12-21T11:57:13.711Z,94.28
2023-12-21T11:59:41.242Z,93.89
2023-12-21T12:02:11.785Z,93.85
2023-12-21T12:04:39.540Z,93.84
2023-12-21T12:07:08.305Z,94.04
2023-12-21T12:09:36.091Z,93.99
2023-12-21T12:12:03.766Z,93.84
2023-12-21T12:14:31.052Z,94.29
2023-12-21T12:16:58.708Z,93.33
2023-12-21T12:19:28.412Z,94.26
2023-12-21T12:21:56.044Z,94.43
2023-12-21T12:24:24.800Z,94.21
2023-12-21T12:26:53.329Z,94.34
2023-12-21T12:29:20.730Z,93.90
2023-12-21T12:31:50.109Z,94.08
2023-12-21T12:34:17.974Z,93.65
2023-12-21T12:36:45.437Z,93.55
2023-12-21T12:39:13.085Z,93.83
2023-12-21T12:41:42.034Z,93.53
2023-12-21T12:44:10.384Z,93.44
2023-12-21T12:46:37.914Z,93.34
2023-12-21T12:49:05.389Z,93.42
2023-12-21T12:51:33.327Z,93.47
2023-12-21T12:54:01.478Z,93.36
2023-12-21T12:56:28.854Z,93.14
2023-12-21T12:58:59.617Z,92.89
2023-12-21T13:01:29.199Z,92.93
2023-12-21T13:03:58.957Z,93.23
2023-12-21T13:06:26.839Z,93.26
2023-12-21T13:08:54.380Z,93.43
2023-12-21T13:11:22.985Z,93.23
2023-12-21T13:13:50.834Z,93.22
2023-12-21T13:16:20.361Z,92.94
2023-12-21T13:18:48.709Z,92.80
2023-12-21T13:21:16.487Z,92.84
2023-12-21T13:23:43.971Z,93.06
2023-12-21T13:26:14.231Z,92.71
2023-12-21T13:28:43.948Z,92.88
2023-12-21T13:31:11.673Z,93.10
2023-12-21T13:33:41.060Z,93.36
2023-12-21T13:36:09.084Z,92.90
2023-12-21T13:38:39.008Z,92.95
2023-12-21T13:41:09.863Z,93.08
2023-12-21T13:43:37.630Z,93.24
2023-12-21T13:46:05.827Z,93.10
2023-12-21T13:48:33.207Z,93.22
2023-12-21T13:51:02.401Z,93.16
2023-12-21T13:53:29.830Z,93.52
2023-12-21T13:55:57.284Z,93.63
2023-12-21T13:58:24.897Z,93.65
2023-12-21T14:00:52.732Z,93.52
2023-12-21T14:03:20.253Z,93.47
2023-12-21T14:05:47.827Z,93.15
2023-12-21T14:08:16.669Z,93.59
2023-12-21T14:10:44.048Z,93.45
2023-12-21T14:13:11.377Z,93.57
2023-12-21T14:15:41.156Z,93.31
2023-12-21T14:18:08.660Z,93.45
2023-12-21T14:20:36.049Z,93.36
2023-12-21T14:23:03.655Z,93.25
2023-12-21T14:25:32.340Z,93.56
2023-12-21T14:28:00.453Z,93.29
2023-12-21T14:30:28.183Z,93.51
2023-12-21T14:32:55.460Z,93.29
2023-12-21T14:35:22.868Z,93.31
2023-12-21T14:37:52.905Z,93.27
2023-12-21T14:40:20.860Z,93.39
2023-12-21T14:42:49.617Z,93.31
2023-12-21T14:45:17.052Z,93.20
2023-12-21T14:47:45.320Z,93.25
2023-12-21T14:50:13.142Z,93.30
2023-12-21T14:52:40.585Z,93.31
2023-12-21T14:55:08.778Z,93.32
2023-12-21T14:57:36.167Z,93.26
2023-12-21T15:00:10.347Z,93.40
2023-12-21T15:02:38.113Z,93.64
2023-12-21T15:05:06.497Z,93.40
2023-12-21T15:07:34.164Z,93.53
2023-12-21T15:10:02.750Z,93.71
2023-12-21T15:12:35.851Z,93.31
2023-12-21T15:15:05.511Z,93.33
2023-12-21T15:17:36.315Z,93.07
2023-12-21T15:20:07.858Z,92.94
2023-12-21T15:22:36.188Z,92.73
2023-12-21T15:25:03.804Z,92.74
2023-12-21T15:27:33.067Z,93.03
2023-12-21T15:30:00.703Z,92.63
2023-12-21T15:32:30.820Z,92.90
2023-12-21T15:34:58.365Z,93.08
2023-12-21T15:37:26.114Z,93.05
2023-12-21T15:39:53.502Z,92.99
2023-12-21T15:42:20.841Z,93.20
2023-12-21T15:44:48.084Z,93.44
2023-12-21T15:47:15.930Z,93.32
2023-12-21T15:49:44.762Z,93.56
2023-12-21T15:52:12.161Z,93.12
2023-12-21T15:54:39.408Z,93.31
2023-12-21T15:57:07.050Z,93.24
2023-12-21T15:59:35.981Z,93.03
2023-12-21T16:02:04.235Z,93.17
2023-12-21T16:04:33.970Z,93.29
2023-12-21T16:07:04.796Z,93.05
2023-12-21T16:09:32.220Z,92.92
2023-12-21T16:11:59.603Z,92.79
2023-12-21T16:14:26.854Z,92.82
2023-12-21T16:16:54.216Z,92.78
2023-12-21T16:19:21.982Z,92.79
2023-12-21T16:21:49.526Z,92.84
2023-12-21T16:24:18.703Z,92.80
2023-12-21T16:26:46.150Z,92.82
2023-12-21T16:29:13.765Z,92.96
2023-12-21T16:31:41.055Z,92.88
2023-12-21T16:34:08.490Z,93.25
2023-12-21T16:36:35.912Z,93.27
2023-12-21T16:39:04.908Z,92.98
2023-12-21T16:41:33.740Z,93.36
2023-12-21T16:44:01.168Z,93.17
2023-12-21T16:46:29.449Z,93.04
2023-12-21T16:48:56.751Z,93.33
2023-12-21T16:51:23.989Z,93.48
2023-12-21T16:53:51.529Z,93.50
2023-12-21T16:56:19.665Z,92.95
2023-12-21T16:58:49.195Z,93.39
2023-12-21T17:01:17.180Z,93.78
2023-12-21T17:03:44.522Z,93.70
2023-12-21T17:06:12.160Z,93.87
2023-12-21T17:08:39.651Z,93.96
2023-12-21T17:11:06.964Z,93.80
2023-12-21T17:13:34.586Z,93.79
2023-12-21T17:16:04.458Z,93.91
2023-12-21T17:18:32.084Z,94.04
2023-12-21T17:20:59.694Z,94.07
2023-12-21T17:23:27.175Z,93.77
2023-12-21T17:25:54.638Z,94.21
2023-12-21T17:28:22.752Z,94.05
2023-12-21T17:30:54.871Z,94.11
2023-12-21T17:33:23.890Z,94.29
2023-12-21T17:35:51.251Z,94.19
2023-12-21T17:38:19.494Z,94.06
2023-12-21T17:40:46.841Z,94.18
2023-12-21T17:43:14.209Z,94.04
2023-12-21T17:45:42.779Z,94.17
2023-12-21T17:48:10.174Z,93.82
2023-12-21T17:50:38.828Z,94.11
2023-12-21T17:53:06.067Z,94.07
2023-12-21T17:55:33.963Z,93.93
2023-12-21T17:58:01.318Z,93.87
2023-12-21T18:00:28.564Z,93.70
2023-12-21T18:02:56.073Z,94.07
2023-12-21T18:05:23.398Z,93.88
2023-12-21T18:07:52.231Z,93.70
2023-12-21T18:10:19.950Z,93.56
2023-12-21T18:12:47.954Z,93.81
2023-12-21T18:15:15.543Z,93.90
2023-12-21T18:17:46.772Z,93.38
2023-12-21T18:20:17.972Z,93.57
2023-12-21T18:22:45.769Z,93.64
2023-12-21T18:25:14.509Z,93.47
2023-12-21T18:27:42.205Z,93.44
2023-12-21T18:30:10.132Z,92.86
2023-12-21T18:32:38.002Z,93.23
2023-12-21T18:35:06.171Z,93.04
2023-12-21T18:37:33.615Z,92.99
2023-12-21T18:40:01.158Z,93.54
2023-12-21T18:42:30.389Z,92.85
2023-12-21T18:44:57.781Z,93.30
2023-12-21T18:47:25.111Z,93.37
2023-12-21T18:49:52.822Z,93.36
2023-12-21T18:52:20.842Z,93.39
2023-12-21T18:54:48.253Z,93.13
2023-12-21T18:57:17.900Z,92.84
2023-12-21T18:59:47.528Z,93.13
2023-12-21T19:02:16.631Z,93.62
2023-12-21T19:04:44.185Z,93.45
2023-12-21T19:07:11.637Z,93.55
2023-12-21T19:09:40.064Z,93.84
2023-12-21T19:12:08.092Z,93.71
2023-12-21T19:14:35.846Z,93.95
2023-12-21T19:17:05.561Z,94.07
2023-12-21T19:19:33.116Z,94.07
2023-12-21T19:22:00.580Z,94.10
2023-12-21T19:24:27.874Z,94.50
2023-12-21T19:26:56.484Z,94.21
2023-12-21T19:29:24.375Z,94.50
2023-12-21T19:31:51.840Z,94.36
2023-12-21T19:34:21.631Z,94.42
2023-12-21T19:36:49.283Z,94.24
2023-12-21T19:39:16.705Z,94.54
2023-12-21T19:41:44.969Z,94.43
2023-12-21T19:44:13.148Z,94.27
2023-12-21T19:46:41.183Z,94.37
2023-12-21T19:49:09.106Z,94.51
2023-12-21T19:51:38.025Z,94.49
2023-12-21T19:54:06.019Z,94.29
2023-12-21T19:56:33.745Z,94.80
2023-12-21T19:59:01.437Z,94.26
2023-12-21T20:01:29.252Z,94.55
2023-12-21T20:03:56.674Z,94.42
2023-12-21T20:06:23.904Z,94.50
2023-12-21T20:08:52.590Z,94.42
2023-12-21T20:11:19.899Z,94.49
2023-12-21T20:13:47.537Z,94.38
2023-12-21T20:16:15.025Z,94.50
2023-12-21T20:18:42.930Z,94.43
2023-12-21T20:21:11.728Z,94.31
2023-12-21T20:23:39.151Z,94.57
2023-12-21T20:26:07.904Z,94.23
2023-12-21T20:28:37.204Z,94.31
2023-12-21T20:31:05.046Z,94.32
2023-12-21T20:33:32.323Z,94.18
2023-12-21T20:35:59.749Z,94.33
2023-12-21T20:38:29.051Z,94.16
2023-12-21T20:40:56.487Z,94.04
2023-12-21T20:43:25.951Z,94.21
2023-12-21T20:45:53.307Z,94.30
2023-12-21T20:48:23.372Z,94.19
2023-12-21T20:50:50.719Z,94.21
2023-12-21T20:53:18.174Z,93.89
2023-12-21T20:55:45.485Z,94.57
2023-12-21T20:58:12.854Z,94.12
2023-12-21T21:00:41.618Z,94.22
2023-12-21T21:03:09.321Z,94.35
2023-12-21T21:05:37.031Z,94.13
2023-12-21T21:08:04.842Z,94.09
2023-12-21T21:10:32.454Z,93.57
2023-12-21T21:13:02.331Z,93.73
2023-12-21T21:15:29.902Z,93.91
2023-12-21T21:17:58.617Z,93.88
2023-12-21T21:20:26.455Z,93.83
2023-12-21T21:22:53.879Z,93.54
2023-12-21T21:25:21.380Z,93.98
2023-12-21T21:27:49.166Z,94.04
2023-12-21T21:30:54.403Z,93.98
2023-12-21T21:33:06.717Z,93.99
2023-12-21T21:35:34.321Z,93.70
2023-12-21T21:38:01.809Z,93.49
2023-12-21T21:40:29.631Z,93.45
2023-12-21T21:42:57.237Z,92.88
2023-12-21T21:45:24.853Z,93.43
2023-12-21T21:47:52.521Z,93.09
2023-12-21T21:50:21.370Z,93.31
2023-12-21T21:52:49.233Z,93.42
2023-12-21T21:55:17.032Z,93.46
2023-12-21T21:57:44.330Z,93.40
2023-12-21T22:00:13.134Z,93.47
2023-12-21T22:02:40.404Z,93.26
2023-12-21T22:05:08.177Z,93.05
2023-12-21T22:07:40.808Z,93.42
2023-12-21T22:10:09.136Z,93.28
2023-12-21T22:12:36.488Z,93.20
2023-12-21T22:15:04.424Z,93.10
2023-12-21T22:17:32.554Z,93.14
2023-12-21T22:20:00.033Z,93.21
2023-12-21T22:22:27.505Z,93.27
2023-12-21T22:24:56.151Z,93.33
2023-12-21T22:27:23.527Z,93.35
2023-12-21T22:29:53.372Z,93.29
2023-12-21T22:32:21.006Z,93.46
2023-12-21T22:34:48.618Z,93.36
2023-12-21T22:37:18.724Z,93.44
2023-12-21T22:39:46.910Z,93.37
2023-12-21T22:42:16.685Z,93.31
2023-12-21T22:44:44.305Z,93.25
2023-12-21T22:47:11.671Z,93.13
2023-12-21T22:49:40.060Z,93.61
2023-12-21T22:52:07.799Z,93.38
2023-12-21T22:54:36.476Z,93.12
2023-12-21T22:57:04.384Z,93.23
2023-12-21T22:59:33.275Z,93.27
2023-12-21T23:02:01.283Z,92.93
2023-12-21T23:04:28.899Z,93.18
2023-12-21T23:06:56.964Z,92.84
2023-12-21T23:09:24.685Z,92.79
2023-12-21T23:11:52.152Z,92.86
2023-12-21T23:14:19.674Z,92.74
2023-12-21T23:16:48.584Z,92.62
2023-12-21T23:19:16.184Z,92.69
2023-12-21T23:21:43.586Z,92.52
2023-12-21T23:24:10.752Z,92.68
2023-12-21T23:26:38.126Z,92.70
2023-12-21T23:29:05.330Z,92.68
2023-12-21T23:31:32.691Z,92.46
2023-12-21T23:34:01.434Z,92.40
2023-12-21T23:36:28.889Z,92.68
2023-12-21T23:38:56.174Z,92.57
2023-12-21T23:41:23.640Z,92.69
2023-12-21T23:43:51.093Z,92.51
2023-12-21T23:46:18.419Z,92.53
2023-12-21T23:48:45.999Z,92.47
2023-12-21T23:51:14.854Z,92.92
2023-12-21T23:53:42.276Z,92.37
2023-12-21T23:56:09.817Z,92.79
2023-12-21T23:58:37.353Z,92.73
